Weather observations for the past three days for
Erie Municipal Airport
| Date | Time (mdt) | Wind (kph) | Vis. (km) | Weather | Sky Cond. | Temperature (ºC) | Relative Humidity | Wind Chill (°C) | Heat Index (°C) | Pressure | Precipitation (cm) | ||||||
|---|---|---|---|---|---|---|---|---|---|---|---|---|---|---|---|---|---|
| Air | Dwpt | 6 hour | altimeter (cm) | sea level (mb) | 1 hr | 3 hr | 6 hr | ||||||||||
| Max. | Min. | ||||||||||||||||
| 07 | 12:35 | W 17 | 12.87 | Mostly Cloudy | SCT160 BKN180 | 18.3 | -0.8 | 28% | 76.15 | 0.0 | |||||||
| 07 | 12:15 | W 17 | 14.48 | Overcast | OVC180 | 17 | -1.4 | 29% | 76.15 | 0.0 | |||||||
| 07 | 11:55 | SW 15 | 14.48 | Mostly Cloudy | BKN180 | 17 | -1.2 | 29% | 76.12 | 0.0 | |||||||
| 07 | 11:15 | W 9 | 14.48 | A Few Clouds | FEW130 | 15.9 | -0.9 | 32% | 76.17 | 0.0 | |||||||
| 07 | 10:55 | W 9 | 14.48 | Mostly Cloudy | BKN130 | 15.2 | -1.4 | 32% | 76.17 | 0.0 | |||||||
| 07 | 10:35 | W 11 | 14.48 | Overcast | OVC120 | 14.7 | -1.4 | 33% | 76.17 | 0.0 | |||||||
| 07 | 09:55 | W 20 | 14.48 | A Few Clouds | FEW110 | 16.5 | -0.2 | 32% | 76.2 | 0.0 | |||||||
| 07 | 09:35 | W 17 | 16.09 | A Few Clouds | FEW120 | 16.5 | 0.1 | 33% | 76.2 | 0.0 | |||||||
| 07 | 09:15 | W 7 | 16.09 | Fair | CLR | 15.1 | -1.1 | 33% | 76.2 | 0.0 | |||||||
| 07 | 08:55 | Calm | 14.48 | A Few Clouds | FEW240 | 14.5 | -0.6 | 36% | 76.23 | 0.0 | |||||||
| 07 | 08:35 | SW 7 | 14.48 | Fair | CLR | 13.4 | -0.6 | 38% | 76.2 | 0.0 | |||||||
| 07 | 08:15 | SW 9 | 14.48 | Fair | CLR | 12.2 | -0.1 | 43% | 76.2 | 0.0 | |||||||
| 07 | 07:55 | S 7 | 16.09 | Fair | CLR | 11.9 | -1.5 | 40% | 76.2 | 0.0 | |||||||
| 07 | 07:35 | S 7 | 16.09 | Fair | CLR | 11 | -1.4 | 42% | 76.2 | 0.0 | |||||||
| 07 | 07:15 | SW 9 | 16.09 | Fair | CLR | 9.5 | -1.2 | 48% | 8 | 76.2 | 0.0 | ||||||
| 07 | 06:55 | S 9 | 16.09 | Fair | CLR | 7.7 | -1.6 | 52% | 6 | 76.17 | 0.0 | ||||||
| 07 | 06:35 | S 11 | 14.48 | Fair | CLR | 7.3 | -3 | 48% | 5 | 76.17 | 0.0 | ||||||
| 07 | 06:15 | S 11 | 14.48 | Fair | CLR | 5.5 | -2.6 | 56% | 3 | 76.17 | 0.0 | ||||||
| 07 | 05:55 | S 9 | 16.09 | Fair | CLR | 4.1 | -2.7 | 62% | 2 | 76.15 | 0.0 | ||||||
| 07 | 05:35 | SW 9 | 14.48 | Fair | CLR | 1.9 | -1.9 | 76% | -1 | 76.17 | 0.0 | ||||||
| 07 | 04:55 | Calm | 16.09 | Fair | CLR | 3.9 | -3.3 | 60% | 76.17 | 0.0 | |||||||
| 07 | 04:35 | S 13 | 16.09 | Fair | CLR | 5.3 | -4 | 51% | 3 | 76.17 | 0.0 | ||||||
| 07 | 04:15 | S 11 | 16.09 | Fair | CLR | 5.3 | -4.1 | 51% | 3 | 76.17 | 0.0 | ||||||
| 07 | 03:55 | SE 13 | 16.09 | Fair | CLR | 5.7 | -4.4 | 49% | 3 | 76.17 | 0.0 | ||||||
| 07 | 03:35 | S 11 | 16.09 | Fair | CLR | 4.9 | -4 | 53% | 3 | 76.2 | 0.0 | ||||||
| 07 | 03:15 | S 7 | 16.09 | Fair | CLR | 3.9 | -3.8 | 58% | 2 | 76.2 | 0.0 | ||||||
| 07 | 02:55 | S 17 | 16.09 | Fair | CLR | 4.4 | -3.7 | 56% | 1 | 76.2 | 0.0 | ||||||
| 07 | 02:35 | S 13 | 14.48 | Fair | CLR | 4.7 | -4.3 | 52% | 2 | 76.2 | 0.0 | ||||||
| 07 | 02:15 | S 19 | 14.48 | Fair | CLR | 3.5 | -3 | 63% | -0 | 76.2 | 0.0 | ||||||
| 07 | 01:55 | S 15 | 14.48 | Fair | CLR | 3.3 | -2.4 | 67% | 0 | 76.23 | 0.0 | ||||||
| 07 | 01:35 | SW 11 | 14.48 | Fair | CLR | 1.6 | -1.9 | 78% | -1 | 76.25 | 0.0 | ||||||
| 07 | 01:15 | SW 11 | 14.48 | Fair | CLR | 0.9 | -1.6 | 84% | -2 | 76.28 | 0.0 | ||||||
| 07 | 00:55 | S 6 | 14.48 | Fair | CLR | 0.1 | -1 | 92% | 76.28 | 0.0 | |||||||
| 07 | 00:35 | Calm | 14.48 | Fair | CLR | 0 | -1 | 93% | 76.28 | 0.0 | |||||||
| 07 | 00:15 | Vrbl 6 | 12.87 | Fair | CLR | 0 | -0.7 | 95% | 76.28 | 0.0 | |||||||
| 06 | 23:55 | S 9 | 12.87 | Fair | CLR | -0.1 | -0.8 | 95% | -3 | 76.3 | 0.0 | ||||||
| 06 | 23:35 | SW 7 | 14.48 | Fair | CLR | 0 | -0.7 | 95% | -2 | 76.33 | 0.0 | ||||||
| 06 | 23:15 | Calm | 14.48 | Fair | CLR | 0.1 | -0.5 | 96% | 76.35 | 0.0 | |||||||
| 06 | 22:35 | SW 6 | 16.09 | Fair | CLR | -0.1 | -0.6 | 96% | 76.35 | 0.0 | |||||||
| 06 | 22:15 | Calm | 16.09 | Fair | CLR | 0.6 | 0 | 96% | 76.35 | 0.0 | |||||||
| 06 | 21:55 | Calm | 16.09 | Fair | CLR | 0.3 | -0.3 | 96% | 76.38 | 0.0 | |||||||
| 06 | 21:35 | Calm | 16.09 | Fair | CLR | -0.3 | -1 | 95% | 76.4 | 0.0 | |||||||
| 06 | 21:15 | Calm | 16.09 | Fair | CLR | 0.5 | -0.5 | 93% | 76.4 | 0.0 | |||||||
| 06 | 20:55 | Calm | 16.09 | Fair | CLR | 2 | 0 | 87% | 76.35 | 0.0 | |||||||
| 06 | 20:35 | Calm | 16.09 | Fair | CLR | 2.4 | 0.3 | 86% | 76.35 | 0.0 | |||||||
| 06 | 19:55 | S 7 | 16.09 | Fair | CLR | 3.9 | -0.6 | 73% | 2 | 76.33 | 0.0 | ||||||
| 06 | 19:35 | S 9 | 16.09 | Fair | CLR | 4.7 | -1.3 | 65% | 3 | 76.33 | 0.0 | ||||||
| 06 | 19:15 | S 11 | 16.09 | Fair | CLR | 5.3 | -1.2 | 63% | 3 | 76.33 | 0.0 | ||||||
| 06 | 18:55 | S 17 | 14.48 | Fair | CLR | 5.7 | -1 | 62% | 3 | 76.35 | 0.0 | ||||||
| 06 | 18:35 | S 11 | 16.09 | Fair | CLR | 5.6 | -1.2 | 62% | 3 | 76.35 | 0.0 | ||||||
| 06 | 18:15 | SW 13 | 16.09 | Fair | CLR | 5.8 | -0.9 | 62% | 3 | 76.38 | 0.0 | ||||||
| 06 | 17:55 | S 11 | 16.09 | Fair | CLR | 5.9 | -1.1 | 61% | 4 | 76.38 | 0.0 | ||||||
| 06 | 17:35 | Vrbl 6 | 16.09 | Fair | CLR | 5 | -1.6 | 63% | 76.4 | 0.0 | |||||||
| 06 | 17:15 | SE 11 | 16.09 | Fair | CLR | 4.8 | -1.4 | 65% | 3 | 76.38 | 0.0 | ||||||
| 06 | 16:55 | SE 13 | 16.09 | A Few Clouds | FEW026 | 4.8 | -0.9 | 67% | 2 | 76.4 | 0.0 | ||||||
| 06 | 16:35 | S 9 | 16.09 | Partly Cloudy | SCT026 | 5.3 | -0.2 | 68% | 3 | 76.43 | 0.0 | ||||||
| 06 | 16:15 | Vrbl 9 | 16.09 | Partly Cloudy | SCT027 | 5 | -0.8 | 66% | 3 | 76.45 | 0.0 | ||||||
| 06 | 15:55 | S 11 | 16.09 | Overcast | OVC027 | 4.9 | -0.8 | 67% | 3 | 76.45 | 0.0 | ||||||
| 06 | 15:35 | Vrbl 6 | 16.09 | Overcast | OVC027 | 4.5 | -0.9 | 68% | 76.48 | 0.0 | |||||||
| 06 | 15:15 | S 7 | 16.09 | Overcast | OVC028 | 4.5 | -0.5 | 70% | 3 | 76.48 | 0.0 | ||||||
| 06 | 14:55 | Calm | 16.09 | Overcast | OVC027 | 3.5 | -1.2 | 72% | 76.5 | 0.0 | |||||||
| 06 | 14:35 | Calm | 16.09 | Overcast | OVC024 | 3.5 | -1.2 | 72% | 76.53 | 0.0 | |||||||
| 06 | 14:15 | Calm | 16.09 | Overcast | OVC024 | 1.8 | -1.6 | 78% | 76.53 | 0.0 | |||||||
| 06 | 13:55 | Calm | 16.09 | Overcast | FEW016 OVC024 | 2.2 | -1.3 | 78% | 76.56 | 0.0 | |||||||
| 06 | 13:35 | Calm | 16.09 | Overcast | BKN016 OVC029 | 1.8 | -0.9 | 83% | 76.56 | 0.0 | |||||||
| 06 | 13:15 | Calm | 16.09 | Overcast | BKN014 OVC030 | 2 | -1 | 81% | 76.58 | 0.0 | |||||||
| 06 | 12:55 | Calm | 16.09 | Overcast | BKN013 OVC021 | 1.1 | -1 | 86% | 76.58 | 0.0 | |||||||
| 06 | 12:35 | Calm | 16.09 | Overcast | BKN012 BKN019 OVC095 | 1.5 | -0.9 | 84% | 76.61 | 0.0 | |||||||
| 06 | 12:15 | N 6 | 16.09 | Overcast | BKN015 BKN021 OVC028 | 0.6 | -0.7 | 91% | 76.61 | 0.0 | |||||||
| 06 | 11:55 | NW 7 | 16.09 | Overcast | SCT008 BKN016 BKN027 OVC032 | 0.7 | -0.5 | 92% | -1 | 76.61 | 0.0 | ||||||
| 06 | 11:35 | Calm | 16.09 | Overcast | SCT009 BKN013 OVC028 | 0.4 | -0.4 | 94% | 76.61 | 0.0 | 0.03 | ||||||
| 06 | 11:15 | NE 9 | 9.66 | Light Snow Fog/Mist | BKN008 OVC012 | -0.5 | -0.7 | 99% | -3 | 76.61 | 0.0 | 0.03 | |||||
| 06 | 10:55 | NE 9 | 1.61 | Light Snow Fog/Mist | BKN005 BKN011 OVC022 | -0.6 | -0.6 | 100% | -3 | 76.58 | 0.0 | 0.03 | |||||
| 06 | 10:35 | N 7 | 8.05 | Light Snow Fog/Mist | SCT006 BKN011 OVC021 | 0.2 | -0.1 | 98% | -2 | 76.56 | 0.0 | ||||||
| 06 | 10:15 | N 13 | 11.27 | Light Snow | BKN005 OVC010 | 0 | 0 | 100% | -4 | 76.53 | 0.0 | ||||||
| 06 | 09:55 | N 9 | 4.02 | Light Snow Fog/Mist | OVC005 | -0.1 | -0.1 | 100% | -3 | 76.53 | 0.0 | ||||||
| 06 | 09:35 | N 11 | 4.83 | Light Snow Fog/Mist | OVC005 | -0.1 | -0.1 | 100% | -3 | 76.5 | 0.0 | 0.03 | |||||
| 06 | 09:15 | N 13 | 4.83 | Light Snow Fog/Mist | OVC004 | -0.2 | -0.2 | 100% | -4 | 76.5 | 0.0 | ||||||
| 06 | 08:55 | N 11 | 8.05 | Light Snow Fog/Mist | BKN005 OVC011 | 0 | 0 | 100% | -3 | 76.48 | 0.0 | ||||||
| 06 | 08:35 | N 11 | 4.83 | Light Snow Fog/Mist | BKN005 OVC009 | 0 | 0 | 100% | -3 | 76.48 | 0.0 | 0.03 | |||||
| 06 | 08:15 | N 11 | 4.83 | Light Snow Fog/Mist | BKN005 BKN011 OVC031 | -0.1 | -0.1 | 100% | -3 | 76.48 | 0.0 | 0.03 | |||||
| 06 | 07:55 | N 7 | 4.83 | Light Snow Fog/Mist | BKN005 OVC011 | -0.2 | -0.2 | 100% | -2 | 76.45 | 0.0 | 0.03 | |||||
| 06 | 07:35 | N 7 | 9.66 | Light Snow Fog/Mist | BKN004 OVC019 | -0.1 | -0.1 | 100% | -2 | 76.45 | 0.0 | 0.03 | |||||
| 06 | 07:15 | N 11 | 2.82 | Light Snow Fog/Mist | BKN004 OVC016 | -0.3 | -0.3 | 100% | -4 | 76.43 | 0.0 | ||||||
| 06 | 06:55 | N 6 | 3.22 | Light Snow Fog/Mist | SCT005 OVC010 | -0.1 | -0.1 | 100% | 76.4 | 0.0 | |||||||
| 06 | 06:35 | N 6 | 1.21 | Light Snow Fog/Mist | SCT004 OVC008 | 0 | 0 | 100% | 76.35 | 0.0 | 0.03 | ||||||
| 06 | 06:15 | NW 6 | 0.80 | Snow Freezing Fog | SCT004 BKN014 OVC024 | -0.2 | -0.2 | 100% | 76.38 | 0.0 | 0.03 | ||||||
| 06 | 05:55 | Calm | 2.01 | Light Snow Fog/Mist | BKN014 BKN023 OVC030 | -0.2 | -0.2 | 100% | 76.35 | 0.0 | |||||||
| 06 | 05:35 | Calm | 4.02 | Light Snow Fog/Mist | SCT006 OVC014 | -0.2 | -0.2 | 100% | 76.35 | 0.0 | |||||||
| 06 | 05:15 | Calm | 11.27 | Light Snow | BKN004 OVC016 | -0.1 | -0.1 | 100% | 76.33 | 0.0 | |||||||
| 06 | 04:55 | NW 6 | 16.09 | Overcast | OVC004 | -0.2 | -0.2 | 100% | 76.33 | 0.0 | |||||||
| 06 | 04:35 | N 6 | 14.48 | Light Snow | BKN004 BKN014 OVC022 | 0 | 0 | 100% | 76.3 | 0.0 | 0.08 | ||||||
| 06 | 04:15 | Calm | 14.48 | Light Snow | BKN004 BKN010 OVC018 | -0.1 | -0.1 | 100% | 76.33 | 0.0 | 0.05 | ||||||
| 06 | 03:55 | Calm | 8.05 | Light Snow Fog/Mist | OVC004 | 0 | 0 | 100% | 76.33 | 0.0 | 0.03 | ||||||
| 06 | 03:35 | Calm | 4.83 | Light Snow Fog/Mist | BKN004 BKN014 OVC022 | -0.1 | -0.1 | 100% | 76.3 | 0.0 | 0.03 | ||||||
| 06 | 03:15 | Calm | 6.44 | Light Snow Fog/Mist | BKN004 OVC019 | 0 | 0 | 100% | 76.3 | 0.0 | |||||||
| 06 | 02:55 | N 6 | 3.22 | Light Snow Fog/Mist | BKN004 OVC013 | -0.1 | -0.1 | 100% | 76.3 | 0.0 | |||||||
| 06 | 02:35 | N 6 | 1.21 | Light Snow Fog/Mist | BKN004 OVC008 | 0 | 0 | 100% | 76.3 | 0.0 | 0.03 | ||||||
| 06 | 01:55 | N 7 | 1.61 | Light Snow Fog/Mist | OVC003 | 0.3 | 0.3 | 100% | -2 | 76.33 | 0.0 | ||||||
| 06 | 01:35 | N 6 | 1.61 | Light Snow Fog/Mist | OVC004 | 0.2 | 0.2 | 100% | 76.3 | 0.0 | 0.05 | ||||||
| 06 | 01:15 | N 9 | 3.22 | Light Snow Fog/Mist | OVC003 | 0.2 | 0.2 | 100% | -3 | 76.3 | 0.0 | 0.03 | |||||
| 06 | 00:55 | N 7 | 3.22 | Light Snow Fog/Mist | OVC004 | 0.4 | 0.4 | 100% | -2 | 76.3 | 0.0 | ||||||
| 06 | 00:35 | N 6 | 3.22 | Light Snow Fog/Mist | OVC004 | 0.4 | 0.4 | 100% | 76.3 | 0.0 | 0.05 | ||||||
| 06 | 00:15 | Calm | 2.41 | Light Snow Fog/Mist | OVC005 | 0.3 | 0.3 | 100% | 76.28 | 0.0 | 0.03 | ||||||
| 05 | 23:55 | Calm | 11.27 | Light Snow | FEW003 OVC012 | 0.3 | 0.3 | 100% | 76.28 | 0.0 | |||||||
| 05 | 23:35 | Calm | 6.44 | Light Snow Fog/Mist | OVC004 | 0.2 | 0.2 | 100% | 76.28 | 0.0 | 0.1 | ||||||
| 05 | 23:15 | Calm | 6.44 | Light Snow Fog/Mist | OVC004 | 0.2 | 0.2 | 100% | 76.25 | 0.0 | 0.05 | ||||||
| 05 | 22:55 | Calm | 3.22 | Light Snow Fog/Mist | OVC004 | 0.2 | 0.2 | 100% | 76.25 | 0.0 | |||||||
| 05 | 22:35 | Calm | 1.61 | Light Snow Fog/Mist | SCT004 OVC008 | 0.2 | 0.2 | 100% | 76.25 | 0.0 | 0.1 | ||||||
| 05 | 22:15 | Calm | 2.41 | Light Snow Fog/Mist | OVC008 | 0.2 | 0.2 | 100% | 76.25 | 0.0 | 0.05 | ||||||
| 05 | 21:55 | Calm | 2.82 | Light Snow Fog/Mist | OVC006 | 0.2 | 0.2 | 100% | 76.25 | 0.0 | |||||||
| 05 | 21:35 | S 7 | 2.41 | Light Snow Fog/Mist | OVC006 | 0.2 | 0.2 | 100% | -2 | 76.23 | 0.0 | 0.08 | |||||
| 05 | 21:15 | S 7 | 2.82 | Light Snow Fog/Mist | FEW003 OVC006 | 0.4 | 0.4 | 100% | -2 | 76.23 | 0.0 | 0.05 | |||||
| 05 | 20:55 | S 7 | 2.41 | Light Snow Fog/Mist | SCT004 OVC008 | 0.2 | 0.2 | 100% | -2 | 76.2 | 0.0 | ||||||
| 05 | 20:35 | Calm | 2.41 | Light Snow Fog/Mist | BKN004 OVC009 | 0.4 | 0.4 | 100% | 76.15 | 0.0 | 0.1 | ||||||
| 05 | 20:15 | NW 7 | 2.82 | Light Snow Fog/Mist | BKN004 OVC009 | 0.3 | 0.3 | 100% | -2 | 76.12 | 0.0 | 0.05 | |||||
| 05 | 19:55 | NW 6 | 2.41 | Light Snow Fog/Mist | OVC004 | 0.4 | 0.4 | 100% | 76.12 | 0.0 | 0.03 | ||||||
| 05 | 19:15 | N 7 | 1.61 | Light Snow Fog/Mist | OVC004 | 0.6 | 0.6 | 100% | -1 | 76.07 | 0.0 | 0.05 | |||||
| 05 | 18:55 | N 6 | 1.61 | Light Snow Fog/Mist | OVC004 | 0.5 | 0.5 | 100% | 76.07 | 0.0 | |||||||
| 05 | 18:35 | N 7 | 2.41 | Light Snow Fog/Mist | OVC004 | 0.5 | 0.5 | 100% | -2 | 76.07 | 0.0 | 0.03 | |||||
| 05 | 18:15 | NW 11 | 2.41 | Light Snow Fog/Mist | OVC004 | 0.6 | 0.6 | 100% | -2 | 76.05 | 0.0 | ||||||
| 05 | 17:55 | NW 13 | 2.01 | Light Snow Fog/Mist | OVC003 | 0.5 | 0.5 | 100% | -3 | 76.05 | 0.0 | ||||||
| 05 | 17:35 | N 13 | 0.40 | Heavy Snow Fog | VV005 | 0.3 | 0.3 | 100% | -3 | 76.02 | 0.0 | 0.13 | |||||
| 05 | 17:15 | N 11 | 0.80 | Snow Fog | VV005 | 0.4 | 0.4 | 100% | -3 | 76.05 | 0.0 | 0.08 | |||||
| 05 | 16:55 | NW 17 | 0.40 | Heavy Snow Fog | OVC004 | 0.4 | 0.4 | 100% | -4 | 76.07 | 0.0 | ||||||
| 05 | 16:35 | N 19 | 2.01 | Light Snow Fog/Mist | OVC004 | 0.9 | 0.9 | 100% | -3 | 76.02 | 0.0 | 0.08 | |||||
| 05 | 16:15 | N 13 | 2.82 | Light Snow Fog/Mist | OVC005 | 1.7 | 1.7 | 100% | -2 | 76.02 | 0.0 | 0.05 | |||||
| 05 | 15:55 | N 17 | 6.44 | Light Rain Fog/Mist | OVC005 | 2.4 | 2.4 | 100% | -1 | 75.97 | 0.0 | ||||||
| 05 | 15:35 | N 17 | 6.44 | Fog/Mist | OVC005 | 2.3 | 2.3 | 100% | -1 | 75.97 | 0.0 | ||||||
| 05 | 15:15 | N 15 | 6.44 | Light Rain Fog/Mist | OVC005 | 2.4 | 2.4 | 100% | -1 | 76 | 0.0 | ||||||
| 05 | 14:55 | N 17 | 8.05 | Light Rain Fog/Mist | BKN007 OVC013 | 2.7 | 2.6 | 99% | -1 | 76 | 0.0 | ||||||
| 05 | 14:35 | N 13 | 8.05 | Light Rain Fog/Mist | BKN010 OVC035 | 4 | 3.5 | 97% | 1 | 76 | 0.0 | 0.03 | |||||
| 05 | 14:15 | N 9 | 8.05 | Light Rain Fog/Mist | BKN008 OVC012 | 4 | 3.6 | 97% | 2 | 76.05 | 0.0 | ||||||
| 05 | 13:55 | N 6 | 16.09 | Overcast | OVC011 | 4.3 | 3.8 | 97% | 76.02 | 0.0 | |||||||
| 05 | 13:35 | N 11 | 12.87 | Overcast | OVC010 | 4 | 3.4 | 96% | 2 | 76.05 | 0.0 | ||||||
| 05 | 13:15 | N 11 | 14.48 | Overcast | OVC011 | 3.8 | 3.1 | 95% | 1 | 76.05 | 0.0 | ||||||
| 05 | 12:55 | N 7 | 8.05 | Fog/Mist | OVC010 | 3.5 | 3.2 | 98% | 2 | 76.05 | 0.0 | ||||||
| 05 | 12:35 | N 7 | 8.05 | Light Rain Fog/Mist | OVC007 | 3.6 | 3.2 | 97% | 2 | 76.07 | 0.0 | 0.03 | |||||
| 05 | 12:15 | NW 7 | 9.66 | Fog/Mist | BKN007 OVC011 | 3.5 | 3.3 | 99% | 2 | 76.1 | 0.0 | ||||||
| 05 | 11:55 | N 6 | 9.66 | Fog/Mist | BKN006 OVC010 | 3.1 | 2.9 | 99% | 76.07 | 0.0 | |||||||
| 05 | 11:35 | NW 6 | 4.83 | Light Rain Fog/Mist | OVC007 | 2.9 | 2.6 | 98% | 76.12 | 0.0 | |||||||
| 05 | 11:15 | NW 11 | 4.83 | Unknown Precip Fog/Mist | OVC006 | 3 | 2.8 | 99% | 0 | 76.15 | 0.0 | ||||||
| 05 | 10:55 | NW 6 | 4.83 | Fog/Mist | BKN006 OVC041 | 2.6 | 2.6 | 100% | 76.12 | 0.0 | |||||||
| 05 | 10:35 | NW 6 | 3.22 | Unknown Precip Fog/Mist | OVC006 | 2.4 | 2.4 | 100% | 76.15 | 0.0 | |||||||
| 05 | 10:15 | NW 7 | 4.02 | Unknown Precip Fog/Mist | OVC005 | 2.3 | 2.3 | 100% | 0 | 76.15 | 0.0 | ||||||
| 05 | 09:35 | NW 9 | 6.44 | Fog/Mist | OVC005 | 1.9 | 1.9 | 100% | -1 | 76.17 | 0.0 | ||||||
| 05 | 09:15 | NW 9 | 8.05 | Fog/Mist | OVC005 | 1.8 | 1.8 | 100% | -1 | 76.17 | 0.0 | ||||||
| 05 | 08:55 | NW 6 | 16.09 | Overcast | OVC005 | 1.5 | 1.5 | 100% | 76.17 | 0.0 | |||||||
| 05 | 08:35 | NW 6 | 16.09 | Overcast | OVC004 | 1.4 | 1.4 | 100% | 76.17 | 0.0 | 0.03 | ||||||
| 05 | 08:15 | NW 7 | 8.05 | Light Snow Fog/Mist | OVC004 | 1.2 | 1.2 | 100% | -1 | 76.17 | 0.0 | 0.03 | |||||
| 05 | 07:55 | NW 6 | 6.44 | Light Snow Fog/Mist | OVC004 | 1 | 1 | 100% | 76.17 | 0.0 | |||||||
| 05 | 07:35 | NW 6 | 2.01 | Light Snow Fog/Mist | OVC004 | 0.6 | 0.6 | 100% | 76.17 | 0.0 | 0.08 | ||||||
| 05 | 07:15 | NW 6 | 2.01 | Light Snow Fog/Mist | OVC004 | 0.7 | 0.7 | 100% | 76.15 | 0.0 | 0.05 | ||||||
| 05 | 06:55 | NW 7 | 4.02 | Light Snow Fog/Mist | OVC004 | 0.9 | 0.9 | 100% | -1 | 76.12 | 0.0 | ||||||
| 05 | 06:35 | N 7 | 2.01 | Light Snow Fog/Mist | OVC005 | 1.1 | 1.1 | 100% | -1 | 76.1 | 0.0 | 0.08 | |||||
| 05 | 06:15 | N 11 | 4.83 | Light Snow Fog/Mist | OVC005 | 1.3 | 1.3 | 100% | -2 | 76.1 | 0.0 | 0.05 | |||||
| 05 | 05:55 | N 15 | 8.05 | Unknown Precip Fog/Mist | OVC006 | 2 | 2 | 100% | -2 | 76.07 | 0.0 | ||||||
| 05 | 05:35 | N 15 | 9.66 | Fog/Mist | OVC006 | 2.2 | 2.2 | 100% | -1 | 76.07 | 0.0 | 0.03 | |||||
| 05 | 05:15 | N 17 | 9.66 | Fog/Mist | OVC006 | 2.3 | 2.3 | 100% | -1 | 76.07 | 0.0 | 0.03 | |||||
| 05 | 04:55 | N 17 G 30 | 9.66 | Light Rain Fog/Mist | BKN006 BKN011 OVC018 | 2.8 | 2.7 | 99% | -1 | 76.02 | 0.0 | ||||||
| 05 | 04:35 | N 19 G 31 | 6.44 | Light Rain Fog/Mist | BKN013 OVC020 | 4.4 | 3.6 | 95% | 1 | 76.02 | 0.0 | 0.15 | |||||
| 05 | 04:15 | NE 17 | 8.05 | Light Rain Fog/Mist | BKN012 OVC018 | 5.1 | 4.5 | 96% | 2 | 76 | 0.0 | 0.1 | |||||
| 05 | 03:55 | N 13 | 9.66 | Light Rain Fog/Mist | OVC011 | 5.4 | 4.9 | 97% | 3 | 75.97 | 0.0 | 0.03 | |||||
| 05 | 03:35 | N 15 | 14.48 | Light Rain | OVC010 | 5.4 | 5 | 97% | 3 | 75.95 | 0.0 | ||||||
| 05 | 03:15 | N 15 | 12.87 | Light Rain | OVC008 | 5.4 | 5.4 | 100% | 3 | 75.92 | 0.0 | ||||||
| 05 | 02:55 | N 17 | 9.66 | Light Rain Fog/Mist | OVC005 | 5.7 | 5.7 | 100% | 3 | 75.92 | 0.0 | ||||||
| 05 | 02:35 | N 15 | 6.44 | Light Rain Fog/Mist | OVC005 | 6.1 | 6.1 | 100% | 3 | 75.92 | 0.0 | 0.08 | |||||
| 05 | 02:15 | N 19 | 6.44 | Light Rain Fog/Mist | BKN005 BKN014 OVC022 | 6.2 | 6.2 | 100% | 3 | 75.92 | 0.0 | 0.03 | |||||
| 05 | 01:55 | N 19 | 8.05 | Light Rain Fog/Mist | FEW008 SCT014 OVC022 | 6.6 | 6.2 | 97% | 4 | 75.92 | 0.0 | ||||||
| 05 | 01:35 | N 17 | 12.87 | Light Rain | SCT013 BKN025 OVC033 | 8.1 | 7.3 | 95% | 6 | 75.92 | 0.0 | ||||||
| 05 | 01:15 | N 6 | 16.09 | Overcast | BKN033 OVC045 | 9.6 | 8.7 | 94% | 75.92 | 0.0 | |||||||
| 05 | 00:55 | Calm | 16.09 | Overcast | OVC045 | 9.4 | 8.2 | 92% | 75.87 | 0.0 | |||||||
| 05 | 00:35 | Calm | 16.09 | Overcast | OVC046 | 9.3 | 8.3 | 94% | 75.87 | 0.0 | |||||||
| 05 | 00:15 | S 6 | 16.09 | Overcast | OVC045 | 9.3 | 8.1 | 92% | 75.87 | 0.0 | |||||||
| 04 | 23:55 | S 7 | 16.09 | Overcast | OVC050 | 9.2 | 8.1 | 93% | 8 | 75.9 | 0.0 | ||||||
| 04 | 23:35 | Calm | 16.09 | Mostly Cloudy | SCT050 BKN070 BKN140 | 9 | 8.1 | 94% | 75.87 | 0.0 | |||||||
| 04 | 23:15 | Calm | 16.09 | Mostly Cloudy | BKN070 | 9.2 | 8 | 92% | 75.87 | 0.0 | |||||||
| 04 | 22:55 | S 7 | 16.09 | Mostly Cloudy | FEW048 BKN070 | 9.2 | 8 | 92% | 8 | 75.84 | 0.0 | ||||||
| 04 | 22:35 | S 13 | 16.09 | Overcast | FEW048 OVC070 | 9.4 | 8.3 | 93% | 8 | 75.87 | 0.0 | 0.03 | |||||
| 04 | 22:15 | S 9 | 14.48 | Light Rain | FEW040 OVC070 | 9.3 | 8.8 | 97% | 8 | 75.9 | 0.0 | 0.03 | |||||
| 04 | 21:55 | S 7 | 11.27 | Light Rain | FEW047 OVC060 | 9.4 | 9 | 97% | 9 | 75.87 | 0.0 | 0.03 | |||||
| 04 | 21:35 | W 15 | 9.66 | Light Rain Fog/Mist | OVC055 | 9.5 | 8.9 | 96% | 8 | 75.9 | 0.0 | 0.25 | |||||
| 04 | 21:15 | W 17 | 8.05 | Light Rain Fog/Mist | OVC049 | 9.7 | 9 | 95% | 8 | 75.87 | 0.0 | 0.13 | |||||
| 04 | 20:55 | NW 13 | 6.44 | Light Rain Fog/Mist | SCT047 OVC055 | 9.9 | 8.2 | 89% | 8 | 75.84 | 0.0 | 0.03 | |||||
| 04 | 20:35 | NW 7 | 12.87 | Light Rain | OVC060 | 10.8 | 7.5 | 80% | 75.82 | 0.0 | |||||||
| 04 | 20:15 | NW 7 | 14.48 | Overcast | OVC060 | 11 | 7.3 | 78% | 75.79 | 0.0 | |||||||
| 04 | 19:55 | NW 11 | 12.87 | Overcast | OVC060 | 11.5 | 6.9 | 74% | 75.79 | 0.0 | |||||||
| 04 | 19:35 | N 15 | 9.66 | Light Rain | OVC060 | 11.8 | 6.4 | 70% | 75.77 | 0.0 | |||||||
| 04 | 19:15 | N 20 | 9.66 | Light Rain | BKN060 OVC075 | 13.6 | 6.5 | 62% | 75.77 | 0.0 | |||||||
| 04 | 18:55 | N 9 | 14.48 | Overcast | FEW043 OVC075 | 14.5 | 4.4 | 51% | 75.74 | 0.0 | |||||||
| 04 | 18:35 | N 9 | 14.48 | Overcast | BKN080 OVC100 | 14.7 | 3.7 | 48% | 75.72 | 0.0 | |||||||
| 04 | 18:15 | N 11 | 14.48 | Mostly Cloudy | SCT080 BKN100 | 14.9 | 3.6 | 47% | 75.72 | 0.0 | |||||||
| 04 | 17:55 | N 19 | 14.48 | Mostly Cloudy | BKN100 BKN110 | 15 | 4.1 | 48% | 75.72 | 0.0 | |||||||
| 04 | 17:35 | N 11 | 14.48 | Mostly Cloudy | SCT110 BKN130 | 16.1 | 1.9 | 39% | 75.69 | 0.0 | |||||||
| 04 | 17:15 | N 9 | 11.27 | Light Rain | FEW033 SCT060 BKN130 | 16.3 | 1.3 | 36% | 75.69 | 0.0 | |||||||
| 04 | 16:55 | W 20 | 12.87 | Light Rain | FEW030 SCT044 BKN060 BKN080 OVC090 | 16.9 | 1.7 | 36% | 75.69 | 0.0 | |||||||
| 04 | 16:35 | W 11 | 14.48 | Mostly Cloudy | BKN090 BKN110 BKN170 | 17.1 | 0.2 | 32% | 75.67 | 0.0 | |||||||
| 04 | 16:15 | N 13 | 16.09 | Mostly Cloudy | SCT170 BKN190 | 17.3 | 0.7 | 33% | 75.64 | 0.0 | |||||||
| 04 | 15:55 | N 19 G 33 | 16.09 | A Few Clouds | FEW130 | 17.7 | 1.2 | 33% | 75.62 | 0.0 | |||||||
| 04 | 15:35 | N 26 G 41 | 14.48 | A Few Clouds | FEW095 | 18.6 | 0.5 | 30% | 75.62 | 0.0 | |||||||
| 04 | 15:15 | N 19 G 39 | 16.09 | Mostly Cloudy | BKN095 | 19 | 0.9 | 30% | 75.64 | 0.0 | |||||||
| 04 | 14:55 | N 20 | 14.48 | Overcast | FEW075 OVC095 | 18.7 | -1.7 | 25% | 75.67 | 0.0 | |||||||
| 04 | 14:35 | N 13 | 16.09 | Overcast | BKN075 OVC100 | 20.7 | -2.7 | 21% | 75.62 | 0.0 | |||||||
| 04 | 14:15 | SW 15 | 16.09 | Overcast | SCT080 OVC100 | 19.9 | -1.8 | 23% | 75.59 | 0.0 | |||||||
| 04 | 13:55 | W 19 G 37 | 16.09 | Overcast | BKN110 BKN130 OVC160 | 20.4 | -2.8 | 21% | 75.59 | 0.0 | |||||||
| 04 | 13:35 | NW 15 | 14.48 | Mostly Cloudy | SCT160 BKN340 | 22.8 | -7.7 | 12% | 75.57 | 0.0 | |||||||
| 04 | 13:15 | Vrbl 7 | 16.09 | Mostly Cloudy | BKN160 BKN370 | 23.4 | -5.8 | 14% | 75.57 | 0.0 | |||||||
| 04 | 12:55 | W 20 | 16.09 | Partly Cloudy | SCT160 | 22.7 | -5.7 | 15% | 75.57 | 0.0 | |||||||
| Date | Time (mdt) | Wind (kph) | Vis. (km) | Weather | Sky Cond. | Air | Dwpt | Max. | Min. | Relative Humidity | Wind Chill (°C) | Heat Index (°C) | altimeter (cm) | sea level (mb) | 1 hr | 3 hr | 6 hr |
| 6 hour | |||||||||||||||||
| Temperature (ºC) | Pressure | Precipitation (cm) | |||||||||||||||